sensor_id;sensor_type;location;lat;lon;timestamp;P1;durP1;ratioP1;P2;durP2;ratioP2
21955;SDS011;11142;49.930;8.606;2022-08-18T00:01:08;9.57;;;7.10;;
21955;SDS011;11142;49.930;8.606;2022-08-18T00:03:41;15.10;;;7.20;;
21955;SDS011;11142;49.930;8.606;2022-08-18T00:08:55;11.23;;;6.60;;
21955;SDS011;11142;49.930;8.606;2022-08-18T00:11:26;22.08;;;7.38;;
21955;SDS011;11142;49.930;8.606;2022-08-18T00:14:08;8.80;;;7.10;;
21955;SDS011;11142;49.930;8.606;2022-08-18T00:16:48;9.77;;;7.15;;
21955;SDS011;11142;49.930;8.606;2022-08-18T00:19:18;10.60;;;7.63;;
21955;SDS011;11142;49.930;8.606;2022-08-18T00:22:08;12.98;;;6.88;;
21955;SDS011;11142;49.930;8.606;2022-08-18T00:24:41;13.20;;;7.47;;
21955;SDS011;11142;49.930;8.606;2022-08-18T00:27:15;10.02;;;7.35;;
21955;SDS011;11142;49.930;8.606;2022-08-18T00:29:49;9.00;;;7.38;;
21955;SDS011;11142;49.930;8.606;2022-08-18T00:32:19;11.65;;;8.18;;
21955;SDS011;11142;49.930;8.606;2022-08-18T00:34:52;16.25;;;8.50;;
21955;SDS011;11142;49.930;8.606;2022-08-18T00:37:21;12.60;;;8.30;;
21955;SDS011;11142;49.930;8.606;2022-08-18T00:39:52;11.65;;;8.90;;
21955;SDS011;11142;49.930;8.606;2022-08-18T00:42:23;14.68;;;8.75;;
21955;SDS011;11142;49.930;8.606;2022-08-18T00:44:58;13.00;;;8.85;;
21955;SDS011;11142;49.930;8.606;2022-08-18T00:47:32;10.40;;;7.93;;
21955;SDS011;11142;49.930;8.606;2022-08-18T00:50:18;14.63;;;8.40;;
21955;SDS011;11142;49.930;8.606;2022-08-18T00:52:51;14.23;;;9.30;;
21955;SDS011;11142;49.930;8.606;2022-08-18T00:55:22;16.10;;;9.43;;
21955;SDS011;11142;49.930;8.606;2022-08-18T00:57:53;11.18;;;9.13;;
21955;SDS011;11142;49.930;8.606;2022-08-18T01:00:28;12.15;;;8.88;;
21955;SDS011;11142;49.930;8.606;2022-08-18T01:02:56;13.68;;;8.65;;
21955;SDS011;11142;49.930;8.606;2022-08-18T01:05:31;10.90;;;8.85;;
21955;SDS011;11142;49.930;8.606;2022-08-18T01:08:06;12.88;;;8.43;;
21955;SDS011;11142;49.930;8.606;2022-08-18T01:10:37;13.73;;;8.40;;
21955;SDS011;11142;49.930;8.606;2022-08-18T01:13:07;11.48;;;7.70;;
21955;SDS011;11142;49.930;8.606;2022-08-18T01:15:36;10.70;;;8.07;;
21955;SDS011;11142;49.930;8.606;2022-08-18T01:18:06;10.75;;;8.10;;
21955;SDS011;11142;49.930;8.606;2022-08-18T01:20:58;11.05;;;7.45;;
21955;SDS011;11142;49.930;8.606;2022-08-18T01:23:50;12.60;;;7.53;;
21955;SDS011;11142;49.930;8.606;2022-08-18T01:26:20;10.30;;;7.45;;
21955;SDS011;11142;49.930;8.606;2022-08-18T01:28:51;13.30;;;7.63;;
21955;SDS011;11142;49.930;8.606;2022-08-18T01:31:33;8.05;;;7.18;;
21955;SDS011;11142;49.930;8.606;2022-08-18T01:34:04;12.13;;;7.75;;
21955;SDS011;11142;49.930;8.606;2022-08-18T01:36:33;15.10;;;7.68;;
21955;SDS011;11142;49.930;8.606;2022-08-18T01:39:08;11.98;;;8.15;;
21955;SDS011;11142;49.930;8.606;2022-08-18T01:41:39;10.70;;;7.50;;
21955;SDS011;11142;49.930;8.606;2022-08-18T01:44:07;10.25;;;7.45;;
21955;SDS011;11142;49.930;8.606;2022-08-18T01:46:38;8.95;;;7.45;;
21955;SDS011;11142;49.930;8.606;2022-08-18T01:49:09;9.98;;;7.60;;
21955;SDS011;11142;49.930;8.606;2022-08-18T01:51:38;8.35;;;6.97;;
21955;SDS011;11142;49.930;8.606;2022-08-18T01:54:11;9.85;;;7.43;;
21955;SDS011;11142;49.930;8.606;2022-08-18T01:56:41;12.50;;;7.47;;
21955;SDS011;11142;49.930;8.606;2022-08-18T01:59:10;12.20;;;7.60;;
21955;SDS011;11142;49.930;8.606;2022-08-18T02:01:42;10.70;;;7.72;;
21955;SDS011;11142;49.930;8.606;2022-08-18T02:04:19;12.07;;;7.30;;
21955;SDS011;11142;49.930;8.606;2022-08-18T02:07:02;11.93;;;7.20;;
21955;SDS011;11142;49.930;8.606;2022-08-18T02:09:34;10.48;;;7.70;;
21955;SDS011;11142;49.930;8.606;2022-08-18T02:12:04;8.88;;;7.35;;
21955;SDS011;11142;49.930;8.606;2022-08-18T02:14:34;8.77;;;6.85;;
21955;SDS011;11142;49.930;8.606;2022-08-18T02:17:03;10.32;;;6.97;;
21955;SDS011;11142;49.930;8.606;2022-08-18T02:19:34;10.93;;;6.97;;
21955;SDS011;11142;49.930;8.606;2022-08-18T02:22:05;8.93;;;7.05;;
21955;SDS011;11142;49.930;8.606;2022-08-18T02:24:36;8.30;;;6.90;;
21955;SDS011;11142;49.930;8.606;2022-08-18T02:27:05;7.68;;;6.25;;
21955;SDS011;11142;49.930;8.606;2022-08-18T02:29:34;10.18;;;6.97;;
21955;SDS011;11142;49.930;8.606;2022-08-18T02:32:03;11.20;;;6.82;;
21955;SDS011;11142;49.930;8.606;2022-08-18T02:34:33;10.45;;;6.45;;
21955;SDS011;11142;49.930;8.606;2022-08-18T02:37:01;11.05;;;6.50;;
21955;SDS011;11142;49.930;8.606;2022-08-18T02:39:32;15.65;;;6.60;;
21955;SDS011;11142;49.930;8.606;2022-08-18T02:42:05;17.00;;;6.68;;
21955;SDS011;11142;49.930;8.606;2022-08-18T02:44:33;8.15;;;6.22;;
21955;SDS011;11142;49.930;8.606;2022-08-18T02:47:02;15.23;;;7.10;;
21955;SDS011;11142;49.930;8.606;2022-08-18T02:49:31;10.63;;;6.22;;
21955;SDS011;11142;49.930;8.606;2022-08-18T02:52:02;9.60;;;6.47;;
21955;SDS011;11142;49.930;8.606;2022-08-18T02:54:31;8.70;;;6.50;;
21955;SDS011;11142;49.930;8.606;2022-08-18T02:57:06;10.25;;;6.40;;
21955;SDS011;11142;49.930;8.606;2022-08-18T02:59:36;11.55;;;6.32;;
21955;SDS011;11142;49.930;8.606;2022-08-18T03:02:07;12.60;;;6.28;;
21955;SDS011;11142;49.930;8.606;2022-08-18T03:04:37;8.20;;;6.53;;
21955;SDS011;11142;49.930;8.606;2022-08-18T03:07:06;8.95;;;6.25;;
21955;SDS011;11142;49.930;8.606;2022-08-18T03:09:35;9.18;;;6.55;;
21955;SDS011;11142;49.930;8.606;2022-08-18T03:12:04;11.07;;;6.13;;
21955;SDS011;11142;49.930;8.606;2022-08-18T03:14:34;7.70;;;6.30;;
21955;SDS011;11142;49.930;8.606;2022-08-18T03:17:06;7.95;;;5.57;;
21955;SDS011;11142;49.930;8.606;2022-08-18T03:19:36;12.18;;;5.75;;
21955;SDS011;11142;49.930;8.606;2022-08-18T03:22:06;7.78;;;5.80;;
21955;SDS011;11142;49.930;8.606;2022-08-18T03:24:54;11.98;;;6.50;;
21955;SDS011;11142;49.930;8.606;2022-08-18T03:27:24;7.10;;;5.90;;
21955;SDS011;11142;49.930;8.606;2022-08-18T03:29:53;11.15;;;6.32;;
21955;SDS011;11142;49.930;8.606;2022-08-18T03:32:24;7.13;;;5.95;;
21955;SDS011;11142;49.930;8.606;2022-08-18T03:34:52;8.98;;;6.35;;
21955;SDS011;11142;49.930;8.606;2022-08-18T03:37:21;10.15;;;6.20;;
21955;SDS011;11142;49.930;8.606;2022-08-18T03:39:50;8.75;;;5.68;;
21955;SDS011;11142;49.930;8.606;2022-08-18T03:42:19;6.85;;;5.60;;
21955;SDS011;11142;49.930;8.606;2022-08-18T03:44:49;8.98;;;6.20;;
21955;SDS011;11142;49.930;8.606;2022-08-18T03:47:18;7.90;;;5.75;;
21955;SDS011;11142;49.930;8.606;2022-08-18T03:49:46;8.40;;;6.18;;
21955;SDS011;11142;49.930;8.606;2022-08-18T03:52:15;7.15;;;5.28;;
21955;SDS011;11142;49.930;8.606;2022-08-18T03:54:43;7.20;;;5.60;;
21955;SDS011;11142;49.930;8.606;2022-08-18T03:57:12;13.77;;;6.38;;
21955;SDS011;11142;49.930;8.606;2022-08-18T03:59:40;10.13;;;5.65;;
21955;SDS011;11142;49.930;8.606;2022-08-18T04:02:10;6.88;;;6.00;;
21955;SDS011;11142;49.930;8.606;2022-08-18T04:04:39;7.18;;;5.63;;
21955;SDS011;11142;49.930;8.606;2022-08-18T04:07:09;9.98;;;6.15;;
21955;SDS011;11142;49.930;8.606;2022-08-18T04:09:39;7.78;;;6.10;;
21955;SDS011;11142;49.930;8.606;2022-08-18T04:12:13;9.27;;;5.78;;
21955;SDS011;11142;49.930;8.606;2022-08-18T04:14:43;8.40;;;5.25;;
21955;SDS011;11142;49.930;8.606;2022-08-18T04:17:16;7.82;;;5.40;;
21955;SDS011;11142;49.930;8.606;2022-08-18T04:19:49;7.10;;;5.30;;
21955;SDS011;11142;49.930;8.606;2022-08-18T04:22:17;8.88;;;5.38;;
21955;SDS011;11142;49.930;8.606;2022-08-18T04:24:45;8.85;;;6.25;;
21955;SDS011;11142;49.930;8.606;2022-08-18T04:27:16;9.18;;;5.57;;
21955;SDS011;11142;49.930;8.606;2022-08-18T04:29:45;8.23;;;5.60;;
21955;SDS011;11142;49.930;8.606;2022-08-18T04:32:13;8.35;;;5.93;;
21955;SDS011;11142;49.930;8.606;2022-08-18T04:34:43;7.65;;;5.97;;
21955;SDS011;11142;49.930;8.606;2022-08-18T04:37:11;7.88;;;5.80;;
21955;SDS011;11142;49.930;8.606;2022-08-18T04:39:41;6.20;;;5.60;;
21955;SDS011;11142;49.930;8.606;2022-08-18T04:42:12;6.90;;;5.70;;
21955;SDS011;11142;49.930;8.606;2022-08-18T04:44:40;7.28;;;5.82;;
21955;SDS011;11142;49.930;8.606;2022-08-18T04:47:09;7.20;;;5.47;;
21955;SDS011;11142;49.930;8.606;2022-08-18T04:49:40;8.18;;;5.47;;
21955;SDS011;11142;49.930;8.606;2022-08-18T04:52:12;7.97;;;5.93;;
21955;SDS011;11142;49.930;8.606;2022-08-18T04:55:07;9.13;;;6.30;;
21955;SDS011;11142;49.930;8.606;2022-08-18T04:57:36;8.55;;;5.88;;
21955;SDS011;11142;49.930;8.606;2022-08-18T05:00:06;8.88;;;6.20;;
21955;SDS011;11142;49.930;8.606;2022-08-18T05:02:35;10.00;;;6.10;;
21955;SDS011;11142;49.930;8.606;2022-08-18T05:05:04;11.52;;;6.05;;
21955;SDS011;11142;49.930;8.606;2022-08-18T05:07:34;8.65;;;6.35;;
21955;SDS011;11142;49.930;8.606;2022-08-18T05:10:04;8.95;;;6.25;;
21955;SDS011;11142;49.930;8.606;2022-08-18T05:12:32;9.93;;;6.68;;
21955;SDS011;11142;49.930;8.606;2022-08-18T05:15:02;8.82;;;7.38;;
21955;SDS011;11142;49.930;8.606;2022-08-18T05:17:31;9.20;;;6.07;;
21955;SDS011;11142;49.930;8.606;2022-08-18T05:19:59;8.98;;;6.25;;
21955;SDS011;11142;49.930;8.606;2022-08-18T05:22:29;9.90;;;6.13;;
21955;SDS011;11142;49.930;8.606;2022-08-18T05:25:07;9.07;;;6.40;;
21955;SDS011;11142;49.930;8.606;2022-08-18T05:27:38;11.95;;;7.22;;
21955;SDS011;11142;49.930;8.606;2022-08-18T05:30:08;10.32;;;6.50;;
21955;SDS011;11142;49.930;8.606;2022-08-18T05:32:39;9.63;;;6.75;;
21955;SDS011;11142;49.930;8.606;2022-08-18T05:35:16;8.18;;;6.45;;
21955;SDS011;11142;49.930;8.606;2022-08-18T05:40:55;10.90;;;6.43;;
21955;SDS011;11142;49.930;8.606;2022-08-18T05:43:31;12.38;;;6.70;;
21955;SDS011;11142;49.930;8.606;2022-08-18T05:46:00;10.30;;;6.68;;
21955;SDS011;11142;49.930;8.606;2022-08-18T05:48:31;8.07;;;6.07;;
21955;SDS011;11142;49.930;8.606;2022-08-18T05:51:13;10.60;;;7.38;;
21955;SDS011;11142;49.930;8.606;2022-08-18T05:53:45;8.73;;;6.78;;
21955;SDS011;11142;49.930;8.606;2022-08-18T05:56:32;8.75;;;6.93;;
21955;SDS011;11142;49.930;8.606;2022-08-18T05:59:21;10.35;;;6.88;;
21955;SDS011;11142;49.930;8.606;2022-08-18T06:01:55;12.57;;;7.47;;
21955;SDS011;11142;49.930;8.606;2022-08-18T06:04:30;10.93;;;7.72;;
21955;SDS011;11142;49.930;8.606;2022-08-18T06:07:08;9.15;;;7.50;;
21955;SDS011;11142;49.930;8.606;2022-08-18T06:09:43;11.57;;;7.72;;
21955;SDS011;11142;49.930;8.606;2022-08-18T06:12:25;8.80;;;7.47;;
21955;SDS011;11142;49.930;8.606;2022-08-18T06:14:58;9.77;;;7.55;;
21955;SDS011;11142;49.930;8.606;2022-08-18T06:17:42;10.25;;;7.50;;
21955;SDS011;11142;49.930;8.606;2022-08-18T06:20:23;9.93;;;6.90;;
21955;SDS011;11142;49.930;8.606;2022-08-18T06:23:00;11.73;;;8.10;;
21955;SDS011;11142;49.930;8.606;2022-08-18T06:25:41;14.63;;;7.50;;
21955;SDS011;11142;49.930;8.606;2022-08-18T06:28:21;9.00;;;7.05;;
21955;SDS011;11142;49.930;8.606;2022-08-18T06:30:52;11.18;;;8.05;;
21955;SDS011;11142;49.930;8.606;2022-08-18T06:33:33;9.43;;;7.40;;
21955;SDS011;11142;49.930;8.606;2022-08-18T06:36:12;9.32;;;7.93;;
21955;SDS011;11142;49.930;8.606;2022-08-18T06:38:50;11.93;;;7.55;;
21955;SDS011;11142;49.930;8.606;2022-08-18T06:41:34;9.38;;;7.57;;
21955;SDS011;11142;49.930;8.606;2022-08-18T06:44:11;9.43;;;7.13;;
21955;SDS011;11142;49.930;8.606;2022-08-18T06:46:45;12.02;;;8.00;;
21955;SDS011;11142;49.930;8.606;2022-08-18T06:49:22;8.18;;;7.20;;
21955;SDS011;11142;49.930;8.606;2022-08-18T06:54:48;12.93;;;7.70;;
21955;SDS011;11142;49.930;8.606;2022-08-18T06:57:23;13.00;;;7.82;;
21955;SDS011;11142;49.930;8.606;2022-08-18T06:59:56;12.10;;;8.20;;
21955;SDS011;11142;49.930;8.606;2022-08-18T07:02:44;10.23;;;7.75;;
21955;SDS011;11142;49.930;8.606;2022-08-18T07:05:20;9.20;;;7.53;;
21955;SDS011;11142;49.930;8.606;2022-08-18T07:08:05;11.43;;;6.85;;
21955;SDS011;11142;49.930;8.606;2022-08-18T07:10:38;10.27;;;7.78;;
21955;SDS011;11142;49.930;8.606;2022-08-18T07:13:17;11.35;;;7.20;;
21955;SDS011;11142;49.930;8.606;2022-08-18T07:15:47;8.45;;;7.07;;
21955;SDS011;11142;49.930;8.606;2022-08-18T07:18:22;12.23;;;7.60;;
21955;SDS011;11142;49.930;8.606;2022-08-18T07:20:54;10.70;;;8.00;;
21955;SDS011;11142;49.930;8.606;2022-08-18T07:23:29;12.13;;;8.80;;
21955;SDS011;11142;49.930;8.606;2022-08-18T07:26:07;19.58;;;13.05;;
21955;SDS011;11142;49.930;8.606;2022-08-18T07:28:43;13.18;;;7.57;;
21955;SDS011;11142;49.930;8.606;2022-08-18T07:31:17;14.40;;;8.27;;
21955;SDS011;11142;49.930;8.606;2022-08-18T07:33:53;15.20;;;7.75;;
21955;SDS011;11142;49.930;8.606;2022-08-18T07:36:26;9.57;;;7.88;;
21955;SDS011;11142;49.930;8.606;2022-08-18T07:38:59;11.32;;;8.00;;
21955;SDS011;11142;49.930;8.606;2022-08-18T07:41:33;10.60;;;7.90;;
21955;SDS011;11142;49.930;8.606;2022-08-18T07:44:12;9.45;;;7.30;;
21955;SDS011;11142;49.930;8.606;2022-08-18T07:46:46;12.57;;;7.45;;
21955;SDS011;11142;49.930;8.606;2022-08-18T07:49:23;12.60;;;7.93;;
21955;SDS011;11142;49.930;8.606;2022-08-18T07:51:59;12.50;;;8.00;;
21955;SDS011;11142;49.930;8.606;2022-08-18T07:54:37;13.18;;;8.77;;
21955;SDS011;11142;49.930;8.606;2022-08-18T07:57:18;14.50;;;7.90;;
21955;SDS011;11142;49.930;8.606;2022-08-18T08:00:00;12.63;;;8.65;;
21955;SDS011;11142;49.930;8.606;2022-08-18T08:02:51;14.02;;;9.35;;
21955;SDS011;11142;49.930;8.606;2022-08-18T08:05:34;15.95;;;8.57;;
21955;SDS011;11142;49.930;8.606;2022-08-18T08:08:12;16.63;;;9.43;;
21955;SDS011;11142;49.930;8.606;2022-08-18T08:10:55;12.95;;;9.88;;
21955;SDS011;11142;49.930;8.606;2022-08-18T08:13:34;14.95;;;9.45;;
21955;SDS011;11142;49.930;8.606;2022-08-18T08:16:25;14.00;;;8.98;;
21955;SDS011;11142;49.930;8.606;2022-08-18T08:19:06;16.20;;;10.10;;
21955;SDS011;11142;49.930;8.606;2022-08-18T08:22:10;15.80;;;10.23;;
21955;SDS011;11142;49.930;8.606;2022-08-18T08:24:44;13.43;;;10.27;;
21955;SDS011;11142;49.930;8.606;2022-08-18T08:27:22;13.57;;;11.05;;
21955;SDS011;11142;49.930;8.606;2022-08-18T08:29:57;14.07;;;10.90;;
21955;SDS011;11142;49.930;8.606;2022-08-18T08:32:34;15.68;;;11.38;;
21955;SDS011;11142;49.930;8.606;2022-08-18T08:35:05;15.07;;;10.52;;
21955;SDS011;11142;49.930;8.606;2022-08-18T08:37:58;20.35;;;11.57;;
21955;SDS011;11142;49.930;8.606;2022-08-18T08:40:54;19.77;;;11.77;;
21955;SDS011;11142;49.930;8.606;2022-08-18T08:43:28;19.60;;;11.73;;
21955;SDS011;11142;49.930;8.606;2022-08-18T08:46:01;17.23;;;10.80;;
21955;SDS011;11142;49.930;8.606;2022-08-18T08:48:38;16.83;;;10.98;;
21955;SDS011;11142;49.930;8.606;2022-08-18T08:51:23;13.82;;;10.52;;
21955;SDS011;11142;49.930;8.606;2022-08-18T08:53:59;15.05;;;10.32;;
21955;SDS011;11142;49.930;8.606;2022-08-18T08:56:35;16.48;;;10.82;;
21955;SDS011;11142;49.930;8.606;2022-08-18T08:59:10;15.70;;;10.73;;
21955;SDS011;11142;49.930;8.606;2022-08-18T09:01:44;15.70;;;10.95;;
21955;SDS011;11142;49.930;8.606;2022-08-18T09:04:24;16.67;;;11.73;;
21955;SDS011;11142;49.930;8.606;2022-08-18T09:07:05;15.68;;;11.43;;
21955;SDS011;11142;49.930;8.606;2022-08-18T09:09:51;14.98;;;10.27;;
21955;SDS011;11142;49.930;8.606;2022-08-18T09:12:46;17.88;;;11.35;;
21955;SDS011;11142;49.930;8.606;2022-08-18T09:15:34;14.93;;;11.02;;
21955;SDS011;11142;49.930;8.606;2022-08-18T09:18:27;16.10;;;11.23;;
21955;SDS011;11142;49.930;8.606;2022-08-18T09:21:07;18.33;;;11.50;;
21955;SDS011;11142;49.930;8.606;2022-08-18T09:23:49;17.40;;;13.18;;
21955;SDS011;11142;49.930;8.606;2022-08-18T09:26:24;22.40;;;13.35;;
21955;SDS011;11142;49.930;8.606;2022-08-18T09:29:12;24.60;;;13.95;;
21955;SDS011;11142;49.930;8.606;2022-08-18T09:31:47;20.77;;;13.02;;
21955;SDS011;11142;49.930;8.606;2022-08-18T09:34:20;22.20;;;13.95;;
21955;SDS011;11142;49.930;8.606;2022-08-18T09:37:09;21.70;;;14.48;;
21955;SDS011;11142;49.930;8.606;2022-08-18T09:39:44;22.58;;;13.20;;
21955;SDS011;11142;49.930;8.606;2022-08-18T09:42:43;23.02;;;13.70;;
21955;SDS011;11142;49.930;8.606;2022-08-18T09:45:40;27.05;;;14.02;;
21955;SDS011;11142;49.930;8.606;2022-08-18T09:48:25;22.17;;;14.15;;
21955;SDS011;11142;49.930;8.606;2022-08-18T10:03:00;20.00;;;15.10;;
21955;SDS011;11142;49.930;8.606;2022-08-18T10:05:32;22.23;;;14.63;;
21955;SDS011;11142;49.930;8.606;2022-08-18T10:11:16;20.35;;;15.25;;
21955;SDS011;11142;49.930;8.606;2022-08-18T10:13:57;23.48;;;18.00;;
21955;SDS011;11142;49.930;8.606;2022-08-18T10:16:41;20.35;;;16.88;;
21955;SDS011;11142;49.930;8.606;2022-08-18T10:19:40;21.58;;;17.25;;
21955;SDS011;11142;49.930;8.606;2022-08-18T10:22:35;20.38;;;14.90;;
21955;SDS011;11142;49.930;8.606;2022-08-18T10:25:08;18.90;;;14.88;;
21955;SDS011;11142;49.930;8.606;2022-08-18T10:27:52;21.80;;;16.35;;
21955;SDS011;11142;49.930;8.606;2022-08-18T10:39:20;22.90;;;17.02;;
21955;SDS011;11142;49.930;8.606;2022-08-18T10:41:54;24.63;;;17.10;;
21955;SDS011;11142;49.930;8.606;2022-08-18T10:44:28;20.92;;;16.67;;
21955;SDS011;11142;49.930;8.606;2022-08-18T10:46:59;23.52;;;16.55;;
21955;SDS011;11142;49.930;8.606;2022-08-18T10:49:37;20.42;;;16.42;;
21955;SDS011;11142;49.930;8.606;2022-08-18T10:55:43;23.05;;;16.58;;
21955;SDS011;11142;49.930;8.606;2022-08-18T10:58:20;18.42;;;14.15;;
21955;SDS011;11142;49.930;8.606;2022-08-18T11:01:15;18.13;;;14.75;;
21955;SDS011;11142;49.930;8.606;2022-08-18T11:04:03;20.13;;;16.27;;
21955;SDS011;11142;49.930;8.606;2022-08-18T11:07:01;18.83;;;15.73;;
21955;SDS011;11142;49.930;8.606;2022-08-18T11:09:35;21.38;;;16.02;;
21955;SDS011;11142;49.930;8.606;2022-08-18T11:12:37;25.65;;;18.70;;
21955;SDS011;11142;49.930;8.606;2022-08-18T11:15:20;25.67;;;18.67;;
21955;SDS011;11142;49.930;8.606;2022-08-18T11:18:08;22.88;;;18.65;;
21955;SDS011;11142;49.930;8.606;2022-08-18T11:20:45;24.92;;;18.65;;
21955;SDS011;11142;49.930;8.606;2022-08-18T11:26:13;27.00;;;20.10;;
21955;SDS011;11142;49.930;8.606;2022-08-18T11:28:45;24.92;;;20.20;;
21955;SDS011;11142;49.930;8.606;2022-08-18T11:31:14;29.20;;;20.88;;
21955;SDS011;11142;49.930;8.606;2022-08-18T11:33:44;26.45;;;21.13;;
21955;SDS011;11142;49.930;8.606;2022-08-18T11:36:16;28.08;;;20.80;;
21955;SDS011;11142;49.930;8.606;2022-08-18T11:38:55;30.67;;;19.15;;
21955;SDS011;11142;49.930;8.606;2022-08-18T11:41:25;25.63;;;19.27;;
21955;SDS011;11142;49.930;8.606;2022-08-18T11:44:15;20.50;;;17.75;;
21955;SDS011;11142;49.930;8.606;2022-08-18T11:46:47;27.20;;;18.30;;
21955;SDS011;11142;49.930;8.606;2022-08-18T11:49:19;24.92;;;18.23;;
21955;SDS011;11142;49.930;8.606;2022-08-18T11:52:21;27.30;;;17.55;;
21955;SDS011;11142;49.930;8.606;2022-08-18T11:55:01;25.08;;;17.75;;
21955;SDS011;11142;49.930;8.606;2022-08-18T11:57:49;24.92;;;18.40;;
21955;SDS011;11142;49.930;8.606;2022-08-18T12:00:35;24.63;;;17.15;;
21955;SDS011;11142;49.930;8.606;2022-08-18T12:03:10;22.52;;;17.33;;
21955;SDS011;11142;49.930;8.606;2022-08-18T12:05:47;20.40;;;16.98;;
21955;SDS011;11142;49.930;8.606;2022-08-18T12:08:24;23.88;;;18.35;;
21955;SDS011;11142;49.930;8.606;2022-08-18T12:11:20;20.27;;;16.48;;
21955;SDS011;11142;49.930;8.606;2022-08-18T12:13:57;23.42;;;15.45;;
21955;SDS011;11142;49.930;8.606;2022-08-18T12:16:52;23.50;;;15.45;;
21955;SDS011;11142;49.930;8.606;2022-08-18T12:19:21;20.58;;;15.30;;
21955;SDS011;11142;49.930;8.606;2022-08-18T12:21:55;19.63;;;16.02;;
21955;SDS011;11142;49.930;8.606;2022-08-18T12:24:24;22.95;;;16.58;;
21955;SDS011;11142;49.930;8.606;2022-08-18T12:27:17;25.35;;;16.88;;
21955;SDS011;11142;49.930;8.606;2022-08-18T12:29:49;20.95;;;16.70;;
21955;SDS011;11142;49.930;8.606;2022-08-18T12:32:18;17.85;;;14.50;;
21955;SDS011;11142;49.930;8.606;2022-08-18T12:35:08;21.90;;;15.43;;
21955;SDS011;11142;49.930;8.606;2022-08-18T12:37:41;19.02;;;16.27;;
21955;SDS011;11142;49.930;8.606;2022-08-18T12:40:28;19.33;;;15.30;;
21955;SDS011;11142;49.930;8.606;2022-08-18T12:42:58;17.80;;;14.63;;
21955;SDS011;11142;49.930;8.606;2022-08-18T12:45:27;23.33;;;14.25;;
21955;SDS011;11142;49.930;8.606;2022-08-18T12:47:56;18.77;;;14.55;;
21955;SDS011;11142;49.930;8.606;2022-08-18T12:50:30;21.38;;;13.65;;
21955;SDS011;11142;49.930;8.606;2022-08-18T12:55:33;16.65;;;13.95;;
21955;SDS011;11142;49.930;8.606;2022-08-18T12:58:11;19.15;;;14.40;;
21955;SDS011;11142;49.930;8.606;2022-08-18T13:00:40;18.27;;;14.38;;
21955;SDS011;11142;49.930;8.606;2022-08-18T13:03:08;19.25;;;14.40;;
21955;SDS011;11142;49.930;8.606;2022-08-18T13:05:36;20.00;;;14.93;;
21955;SDS011;11142;49.930;8.606;2022-08-18T13:08:08;18.92;;;14.48;;
21955;SDS011;11142;49.930;8.606;2022-08-18T13:10:56;16.17;;;12.85;;
21955;SDS011;11142;49.930;8.606;2022-08-18T13:13:46;14.73;;;11.63;;
21955;SDS011;11142;49.930;8.606;2022-08-18T13:16:21;16.17;;;12.48;;
21955;SDS011;11142;49.930;8.606;2022-08-18T13:19:05;14.38;;;12.13;;
21955;SDS011;11142;49.930;8.606;2022-08-18T13:21:36;14.05;;;11.68;;
21955;SDS011;11142;49.930;8.606;2022-08-18T13:24:09;17.30;;;13.00;;
21955;SDS011;11142;49.930;8.606;2022-08-18T13:26:40;13.60;;;11.20;;
21955;SDS011;11142;49.930;8.606;2022-08-18T13:31:43;17.65;;;13.35;;
21955;SDS011;11142;49.930;8.606;2022-08-18T13:34:21;15.57;;;12.60;;
21955;SDS011;11142;49.930;8.606;2022-08-18T13:36:49;13.98;;;11.88;;
21955;SDS011;11142;49.930;8.606;2022-08-18T13:39:20;15.77;;;11.77;;
21955;SDS011;11142;49.930;8.606;2022-08-18T13:41:56;19.95;;;13.02;;
21955;SDS011;11142;49.930;8.606;2022-08-18T13:44:26;12.45;;;10.32;;
21955;SDS011;11142;49.930;8.606;2022-08-18T13:46:54;12.57;;;11.00;;
21955;SDS011;11142;49.930;8.606;2022-08-18T13:49:23;15.02;;;10.20;;
21955;SDS011;11142;49.930;8.606;2022-08-18T13:51:56;13.13;;;10.20;;
21955;SDS011;11142;49.930;8.606;2022-08-18T13:54:29;11.85;;;9.85;;
21955;SDS011;11142;49.930;8.606;2022-08-18T13:57:01;15.40;;;11.77;;
21955;SDS011;11142;49.930;8.606;2022-08-18T13:59:32;15.98;;;10.63;;
21955;SDS011;11142;49.930;8.606;2022-08-18T14:02:01;13.60;;;10.32;;
21955;SDS011;11142;49.930;8.606;2022-08-18T14:04:34;15.05;;;11.38;;
21955;SDS011;11142;49.930;8.606;2022-08-18T14:07:04;14.93;;;12.38;;
21955;SDS011;11142;49.930;8.606;2022-08-18T14:09:39;15.18;;;11.10;;
21955;SDS011;11142;49.930;8.606;2022-08-18T14:12:11;13.07;;;9.95;;
21955;SDS011;11142;49.930;8.606;2022-08-18T14:14:50;12.97;;;10.70;;
21955;SDS011;11142;49.930;8.606;2022-08-18T14:17:20;13.82;;;10.32;;
21955;SDS011;11142;49.930;8.606;2022-08-18T14:19:49;13.23;;;10.73;;
21955;SDS011;11142;49.930;8.606;2022-08-18T14:22:48;12.20;;;10.32;;
21955;SDS011;11142;49.930;8.606;2022-08-18T14:25:36;14.43;;;10.68;;
21955;SDS011;11142;49.930;8.606;2022-08-18T14:28:25;10.88;;;9.68;;
21955;SDS011;11142;49.930;8.606;2022-08-18T14:30:54;14.98;;;10.57;;
21955;SDS011;11142;49.930;8.606;2022-08-18T14:33:24;13.45;;;9.77;;
21955;SDS011;11142;49.930;8.606;2022-08-18T14:36:13;14.25;;;11.57;;
21955;SDS011;11142;49.930;8.606;2022-08-18T14:38:43;11.30;;;8.90;;
21955;SDS011;11142;49.930;8.606;2022-08-18T14:41:18;10.20;;;8.15;;
21955;SDS011;11142;49.930;8.606;2022-08-18T14:43:52;17.33;;;8.77;;
21955;SDS011;11142;49.930;8.606;2022-08-18T14:46:39;9.93;;;8.70;;
21955;SDS011;11142;49.930;8.606;2022-08-18T14:49:19;10.73;;;8.90;;
21955;SDS011;11142;49.930;8.606;2022-08-18T14:51:55;10.20;;;8.73;;
21955;SDS011;11142;49.930;8.606;2022-08-18T14:54:24;10.60;;;8.02;;
21955;SDS011;11142;49.930;8.606;2022-08-18T14:56:57;10.45;;;8.45;;
21955;SDS011;11142;49.930;8.606;2022-08-18T14:59:28;11.15;;;8.65;;
21955;SDS011;11142;49.930;8.606;2022-08-18T15:02:03;12.15;;;8.10;;
21955;SDS011;11142;49.930;8.606;2022-08-18T15:04:38;12.00;;;8.43;;
21955;SDS011;11142;49.930;8.606;2022-08-18T15:07:21;9.82;;;7.85;;
21955;SDS011;11142;49.930;8.606;2022-08-18T15:09:51;11.90;;;7.97;;
21955;SDS011;11142;49.930;8.606;2022-08-18T15:12:40;9.18;;;7.35;;
21955;SDS011;11142;49.930;8.606;2022-08-18T15:15:10;9.70;;;6.97;;
21955;SDS011;11142;49.930;8.606;2022-08-18T15:17:43;9.13;;;7.65;;
21955;SDS011;11142;49.930;8.606;2022-08-18T15:20:18;8.48;;;7.60;;
21955;SDS011;11142;49.930;8.606;2022-08-18T15:22:55;12.02;;;7.45;;
21955;SDS011;11142;49.930;8.606;2022-08-18T15:25:50;9.23;;;7.88;;
21955;SDS011;11142;49.930;8.606;2022-08-18T15:28:21;11.25;;;6.63;;
21955;SDS011;11142;49.930;8.606;2022-08-18T15:33:40;7.35;;;6.60;;
21955;SDS011;11142;49.930;8.606;2022-08-18T15:36:15;8.00;;;6.47;;
21955;SDS011;11142;49.930;8.606;2022-08-18T15:38:54;7.70;;;6.55;;
21955;SDS011;11142;49.930;8.606;2022-08-18T15:41:27;6.90;;;6.20;;
21955;SDS011;11142;49.930;8.606;2022-08-18T15:44:11;8.35;;;6.20;;
21955;SDS011;11142;49.930;8.606;2022-08-18T15:46:40;8.77;;;6.55;;
21955;SDS011;11142;49.930;8.606;2022-08-18T15:49:18;8.60;;;6.65;;
21955;SDS011;11142;49.930;8.606;2022-08-18T15:51:49;13.68;;;6.78;;
21955;SDS011;11142;49.930;8.606;2022-08-18T15:54:18;10.57;;;6.85;;
21955;SDS011;11142;49.930;8.606;2022-08-18T15:56:46;7.22;;;6.18;;
21955;SDS011;11142;49.930;8.606;2022-08-18T15:59:25;9.32;;;7.53;;
21955;SDS011;11142;49.930;8.606;2022-08-18T16:02:05;15.07;;;7.93;;
21955;SDS011;11142;49.930;8.606;2022-08-18T16:04:38;17.15;;;7.65;;
21955;SDS011;11142;49.930;8.606;2022-08-18T16:07:10;15.95;;;7.68;;
21955;SDS011;11142;49.930;8.606;2022-08-18T16:09:39;8.85;;;7.57;;